Time;durP1;ratioP1;P1;durP2;ratioP2;P2;SDS_P1;SDS_P2;PMS_P1;PMS_P2;Temp;Humidity;BMP_temperature;BMP_pressure;BME280_temperature;BME280_humidity;BME280_pressure;Samples;Min_cycle;Max_cycle;Signal;HPM_P1;HPM_P2
2022/01/19 00:00:15;;;;;;;9.60;4.13;;;;;;;3.57;45.76;102328.09;4999717;28;20205;-77
2022/01/19 00:02:40;;;;;;;9.13;4.70;;;;;;;3.56;45.69;102326.28;4999316;28;20224;-78
2022/01/19 00:05:07;;;;;;;9.83;5.37;;;;;;;3.48;45.85;102315.91;4997607;28;20704;-77
2022/01/19 00:07:33;;;;;;;8.23;4.47;;;;;;;3.31;45.97;102288.84;4996848;28;20182;-77
2022/01/19 00:10:03;;;;;;;8.27;4.53;;;;;;;3.54;45.63;102328.56;4997000;28;20236;-77
2022/01/19 00:12:30;;;;;;;10.23;5.57;;;;;;;3.55;46.47;102342.16;4996784;28;20237;-76
2022/01/19 00:14:56;;;;;;;14.40;6.90;;;;;;;3.50;46.02;102333.91;4999208;28;20216;-75
2022/01/19 00:17:21;;;;;;;11.97;6.83;;;;;;;3.52;45.92;102339.16;4997460;28;20565;-76
2022/01/19 00:19:47;;;;;;;10.77;5.70;;;;;;;3.38;46.00;102330.50;4996073;28;20204;-77
2022/01/19 00:22:12;;;;;;;13.53;5.73;;;;;;;3.36;45.95;102348.69;4997925;28;20181;-76
2022/01/19 00:24:38;;;;;;;15.30;6.97;;;;;;;3.31;46.48;102342.97;4997824;28;20240;-77
2022/01/19 00:27:04;;;;;;;11.97;5.83;;;;;;;3.31;46.21;102348.03;4996601;28;20267;-76
2022/01/19 00:29:29;;;;;;;13.13;5.73;;;;;;;3.29;46.36;102359.56;4996331;28;20184;-77
2022/01/19 00:31:55;;;;;;;8.00;4.67;;;;;;;3.11;46.37;102334.06;4996622;28;20181;-78
2022/01/19 00:34:20;;;;;;;10.60;5.37;;;;;;;3.20;45.55;102345.53;4979915;28;20184;-78
2022/01/19 00:36:46;;;;;;;7.80;5.03;;;;;;;3.33;46.34;102361.81;4997291;28;20208;-77
2022/01/19 00:39:11;;;;;;;7.47;4.47;;;;;;;3.36;46.19;102354.69;4998283;28;20570;-77
2022/01/19 00:41:37;;;;;;;7.40;4.37;;;;;;;3.39;46.13;102352.59;4997997;28;20188;-77
2022/01/19 00:44:04;;;;;;;5.23;3.80;;;;;;;3.24;45.73;102320.88;4998055;28;20215;-76
2022/01/19 00:46:29;;;;;;;10.33;4.13;;;;;;;3.45;44.90;102355.09;4997781;28;20189;-76
2022/01/19 00:48:55;;;;;;;7.77;4.60;;;;;;;3.05;45.30;102295.16;4998917;28;20185;-78
2022/01/19 00:51:20;;;;;;;8.87;4.10;;;;;;;3.44;44.87;102350.75;4997750;28;20669;-77
2022/01/19 00:53:46;;;;;;;6.70;3.80;;;;;;;3.35;44.31;102337.66;4998860;28;20272;-75
2022/01/19 00:56:12;;;;;;;5.83;3.80;;;;;;;3.44;45.01;102348.22;4998451;28;20457;-77
2022/01/19 00:58:37;;;;;;;8.03;3.80;;;;;;;3.44;44.81;102346.59;4998226;28;20652;-75
2022/01/19 01:01:04;;;;;;;7.93;4.23;;;;;;;3.46;44.28;102356.97;4999291;28;20173;-76
2022/01/19 01:03:29;;;;;;;9.40;4.50;;;;;;;3.44;43.77;102349.13;4980720;28;20185;-77
2022/01/19 01:05:55;;;;;;;7.83;4.17;;;;;;;3.47;43.81;102351.19;4999595;28;20743;-78
2022/01/19 01:08:21;;;;;;;9.37;4.53;;;;;;;3.33;44.55;102340.66;5000597;28;20189;-77
2022/01/19 01:10:46;;;;;;;7.47;4.40;;;;;;;3.31;44.16;102347.13;4999247;28;20175;-77
2022/01/19 01:16:05;;;;;;;11.50;4.83;;;;;;;3.29;44.67;102353.56;4979349;28;20256;-76
2022/01/19 01:18:33;;;;;;;13.93;5.90;;;;;;;3.04;45.23;102311.97;4998572;28;20182;-76
2022/01/19 01:21:00;;;;;;;16.53;6.60;;;;;;;3.07;44.80;102320.03;5000054;28;20181;-76
2022/01/19 01:23:28;;;;;;;18.23;7.20;;;;;;;3.23;45.21;102346.91;4983619;28;20181;-76
2022/01/19 01:25:54;;;;;;;8.87;6.23;;;;;;;3.27;45.42;102337.22;4999819;28;20184;-75
2022/01/19 01:28:21;;;;;;;11.10;5.70;;;;;;;3.15;45.11;102316.09;5002166;28;20173;-76
2022/01/19 01:30:47;;;;;;;15.93;6.70;;;;;;;3.18;45.51;102345.34;5004623;28;20184;-76
2022/01/19 01:33:13;;;;;;;15.13;7.80;;;;;;;3.06;46.23;102343.53;5007036;28;20198;-75
2022/01/19 01:35:39;;;;;;;15.70;7.87;;;;;;;2.90;47.39;102337.81;5008734;28;20181;-74
2022/01/19 01:38:06;;;;;;;12.63;6.33;;;;;;;2.76;48.21;102347.50;5009378;28;20189;-76
2022/01/19 01:40:34;;;;;;;15.47;7.30;;;;;;;1.94;50.35;102220.66;5006410;28;20197;-76
2022/01/19 01:43:01;;;;;;;14.33;6.43;;;;;;;2.29;50.66;102306.84;5004153;28;20189;-76
2022/01/19 01:45:30;;;;;;;11.70;6.93;;;;;;;2.35;51.42;102344.78;5005692;28;20213;-73
2022/01/19 01:53:26;;;;;;;19.63;7.90;;;;;;;2.17;53.37;102358.13;5004718;28;20209;-76
2022/01/19 01:56:16;;;;;;;13.17;7.57;;;;;;;1.99;54.19;102356.25;5007426;28;20172;-76
2022/01/19 01:58:44;;;;;;;16.97;8.13;;;;;;;1.98;54.86;102372.13;5003267;28;20170;-76
2022/01/19 02:01:10;;;;;;;18.37;7.90;;;;;;;1.84;55.40;102362.47;4998022;28;20189;-76
2022/01/19 02:03:39;;;;;;;20.53;8.67;;;;;;;1.57;56.28;102341.47;4996576;28;20652;-74
2022/01/19 02:07:03;;;;;;;18.17;8.83;;;;;;;1.58;56.98;102370.19;4994960;28;20200;-77
2022/01/19 02:09:12;;;;;;;11.97;7.00;;;;;;;1.42;57.71;102354.28;4989779;28;20204;-77
2022/01/19 02:23:24;;;;;;;13.77;7.17;;;;;;;1.33;59.27;102365.50;4993147;28;20266;-76
2022/01/19 02:25:52;;;;;;;11.00;6.40;;;;;;;1.21;59.52;102356.03;4993173;28;20172;-77
2022/01/19 02:36:49;;;;;;;9.57;6.13;;;;;;;0.77;61.86;102376.19;4992746;28;20180;-77
2022/01/19 02:41:59;;;;;;;12.10;6.63;;;;;;;0.59;62.83;102375.84;4992654;28;20169;-76
2022/01/19 02:49:49;;;;;;;9.83;5.87;;;;;;;0.66;63.24;102394.72;4992475;28;20179;-77
2022/01/19 02:52:17;;;;;;;18.40;7.10;;;;;;;0.56;63.62;102393.00;4992531;28;20177;-76
2022/01/19 02:54:42;;;;;;;11.93;6.73;;;;;;;0.34;63.91;102366.00;4992473;28;20177;-77
2022/01/19 02:57:11;;;;;;;17.27;6.90;;;;;;;0.62;63.82;102406.59;4992621;28;20188;-77
2022/01/19 03:10:38;;;;;;;10.53;6.23;;;;;;;0.59;64.28;102409.56;4992190;28;20204;-77
2022/01/19 03:13:04;;;;;;;11.20;6.13;;;;;;;0.44;64.04;102395.47;4991780;28;20236;-76
2022/01/19 03:15:30;;;;;;;13.87;6.50;;;;;;;0.54;63.99;102404.47;4992071;28;20256;-76
2022/01/19 03:18:00;;;;;;;12.10;6.33;;;;;;;0.60;63.76;102411.41;4991895;28;20173;-76
2022/01/19 03:20:28;;;;;;;13.50;6.17;;;;;;;0.57;64.08;102407.50;4992043;28;20219;-76
2022/01/19 03:23:04;;;;;;;13.87;6.50;;;;;;;0.61;64.02;102414.84;4991874;28;20189;-77
2022/01/19 03:25:30;;;;;;;16.80;6.80;;;;;;;0.61;63.43;102412.31;4996728;28;20222;-77
2022/01/19 03:27:55;;;;;;;14.77;6.17;;;;;;;0.65;63.46;102420.63;4979566;28;20577;-77
2022/01/19 03:30:22;;;;;;;11.97;6.23;;;;;;;0.68;63.70;102427.75;4994458;28;20181;-76
2022/01/19 03:32:48;;;;;;;19.17;7.00;;;;;;;0.45;63.61;102387.19;4991290;28;20235;-76
2022/01/19 03:35:14;;;;;;;15.07;6.37;;;;;;;0.66;63.58;102432.56;4991732;28;20185;-77
2022/01/19 03:37:40;;;;;;;14.50;6.87;;;;;;;0.62;63.75;102437.81;4991725;28;20188;-76
2022/01/19 03:40:07;;;;;;;20.37;6.37;;;;;;;0.54;64.35;102437.28;4991575;28;20177;-76
2022/01/19 03:42:33;;;;;;;16.37;6.77;;;;;;;0.19;64.90;102412.44;4991787;28;20278;-76
2022/01/19 03:44:59;;;;;;;13.90;6.17;;;;;;;0.31;65.02;102442.13;4992119;28;20292;-76
2022/01/19 03:47:27;;;;;;;14.63;7.10;;;;;;;0.27;65.33;102434.72;4991757;28;20200;-76
2022/01/19 03:49:53;;;;;;;12.47;6.27;;;;;;;0.12;65.54;102433.19;4991670;28;20177;-76
2022/01/19 03:52:19;;;;;;;17.17;7.00;;;;;;;0.18;65.99;102446.78;4991574;28;20656;-76
2022/01/19 03:54:45;;;;;;;12.60;6.27;;;;;;;-0.09;66.00;102381.91;4991661;28;20174;-77
2022/01/19 03:57:11;;;;;;;14.00;6.30;;;;;;;0.31;65.67;102441.16;4991729;28;20548;-76
2022/01/19 03:59:38;;;;;;;13.33;7.10;;;;;;;0.18;65.14;102424.09;4991468;28;20181;-77
2022/01/19 04:02:05;;;;;;;13.60;7.17;;;;;;;0.32;65.99;102451.50;4991366;28;20180;-78
2022/01/19 04:09:25;;;;;;;11.03;6.47;;;;;;;0.08;65.93;102437.50;4991209;28;20257;-76
2022/01/19 04:11:51;;;;;;;13.00;7.63;;;;;;;0.30;65.55;102455.38;4991176;28;20225;-77
2022/01/19 04:14:23;;;;;;;15.67;6.87;;;;;;;0.23;65.41;102461.06;4991672;28;20244;-77
2022/01/19 04:16:51;;;;;;;20.20;7.23;;;;;;;0.15;65.85;102465.53;4991738;28;20582;-76
2022/01/19 04:19:40;;;;;;;16.77;6.97;;;;;;;-0.32;65.62;102385.75;4991590;28;20191;-75
2022/01/19 04:22:09;;;;;;;17.77;7.63;;;;;;;0.08;65.84;102461.13;4991237;28;20174;-76
2022/01/19 04:24:36;;;;;;;17.43;8.47;;;;;;;-0.05;65.84;102454.78;4991425;28;20204;-76
2022/01/19 04:30:11;;;;;;;12.87;7.27;;;;;;;-0.14;66.78;102456.75;4973940;28;20193;-77
2022/01/19 04:32:49;;;;;;;14.50;7.83;;;;;;;-0.83;66.28;102354.94;4991308;28;20247;-77
2022/01/19 04:35:20;;;;;;;14.73;7.70;;;;;;;-0.10;66.93;102468.22;4991614;28;20269;-78
2022/01/19 05:04:48;;;;;;;12.97;6.90;;;;;;;-0.06;66.78;102481.59;4994101;28;20267;-75
2022/01/19 05:07:22;;;;;;;13.47;7.07;;;;;;;-0.54;67.54;102412.50;4994521;28;20257;-77
2022/01/19 05:10:03;;;;;;;13.40;7.83;;;;;;;-0.12;66.95;102465.47;4994676;28;20173;-77
2022/01/19 05:15:13;;;;;;;17.20;8.30;;;;;;;0.02;66.66;102487.84;4979868;28;20184;-75
2022/01/19 05:17:39;;;;;;;20.97;9.17;;;;;;;0.05;66.47;102485.81;4994244;28;20573;-77
2022/01/19 05:20:06;;;;;;;23.17;9.90;;;;;;;0.05;67.18;102487.44;4995001;28;20173;-76
2022/01/19 05:22:34;;;;;;;15.67;8.83;;;;;;;0.41;72.88;102495.84;4994651;28;20209;-77
2022/01/19 05:25:00;;;;;;;25.03;11.27;;;;;;;0.58;69.75;102479.94;4995606;28;20205;-79
2022/01/19 05:27:25;;;;;;;23.67;10.40;;;;;;;0.38;66.00;102491.94;4994295;28;20605;-78
2022/01/19 05:29:51;;;;;;;18.30;9.43;;;;;;;0.20;66.68;102483.25;4993848;28;20208;-78
2022/01/19 05:32:16;;;;;;;24.53;10.50;;;;;;;0.02;66.82;102466.78;4994356;28;20325;-79
2022/01/19 05:34:42;;;;;;;21.80;10.33;;;;;;;0.05;67.12;102474.81;4994401;28;20173;-80
2022/01/19 05:37:08;;;;;;;18.40;10.30;;;;;;;0.33;66.16;102500.34;4994690;28;20166;-77
2022/01/19 05:39:35;;;;;;;21.53;10.13;;;;;;;0.44;65.66;102513.09;4993898;28;20800;-81
2022/01/19 05:42:00;;;;;;;27.13;11.60;;;;;;;0.48;65.30;102520.44;4994407;28;20192;-78
2022/01/19 05:44:26;;;;;;;20.27;9.63;;;;;;;0.49;65.27;102519.75;4993203;28;20853;-77
2022/01/19 05:46:51;;;;;;;23.13;11.03;;;;;;;0.32;66.04;102516.16;4993745;28;20173;-77
2022/01/19 05:49:17;;;;;;;17.23;9.73;;;;;;;-0.09;66.36;102465.97;4993025;28;20177;-77
2022/01/19 05:51:43;;;;;;;21.07;8.77;;;;;;;0.03;67.08;102514.88;4993620;28;20555;-77
2022/01/19 05:54:08;;;;;;;20.53;9.63;;;;;;;0.07;67.55;102519.78;4993624;28;20169;-77
2022/01/19 05:56:34;;;;;;;17.77;8.30;;;;;;;0.06;67.17;102511.94;4993776;28;20268;-80
2022/01/19 05:58:59;;;;;;;14.77;8.17;;;;;;;0.13;67.07;102533.38;4993540;28;20583;-80
2022/01/19 06:01:25;;;;;;;18.83;8.33;;;;;;;0.00;67.25;102509.38;4993445;28;20177;-78
2022/01/19 06:03:54;;;;;;;24.40;11.90;;;;;;;0.08;66.92;102539.25;4993532;28;20216;-78
2022/01/19 06:06:19;;;;;;;25.77;12.57;;;;;;;-0.08;68.00;102527.38;4994147;28;20180;-80
2022/01/19 06:08:48;;;;;;;23.63;10.73;;;;;;;-0.02;67.98;102534.31;4993793;28;20181;-77
2022/01/19 06:11:16;;;;;;;25.20;11.63;;;;;;;0.00;68.04;102557.28;4993363;28;20256;-79
2022/01/19 06:13:41;;;;;;;22.17;11.17;;;;;;;-0.03;68.12;102554.25;4992987;28;20229;-79
2022/01/19 06:16:07;;;;;;;18.57;10.73;;;;;;;-0.40;68.23;102497.88;4993237;28;20204;-78
2022/01/19 06:18:34;;;;;;;24.97;12.17;;;;;;;-0.33;68.42;102497.28;4993011;28;20272;-80
2022/01/19 06:20:59;;;;;;;20.40;10.47;;;;;;;0.05;67.66;102538.75;4993305;28;20196;-77
2022/01/19 06:23:25;;;;;;;20.43;10.10;;;;;;;0.11;67.78;102547.31;4993000;28;20181;-77
2022/01/19 06:25:51;;;;;;;28.37;10.47;;;;;;;0.10;67.99;102542.03;4992691;28;20205;-77
2022/01/19 06:28:16;;;;;;;25.27;11.03;;;;;;;0.28;67.18;102546.56;4993020;28;20169;-78
2022/01/19 06:30:42;;;;;;;27.23;12.43;;;;;;;0.17;67.45;102520.56;4975533;28;20264;-78
2022/01/19 06:33:07;;;;;;;22.83;10.30;;;;;;;0.33;66.93;102554.22;4992902;28;20650;-77
2022/01/19 06:35:33;;;;;;;23.33;10.23;;;;;;;0.04;67.46;102516.75;4992932;28;20288;-78
2022/01/19 06:37:59;;;;;;;18.13;10.07;;;;;;;0.13;67.69;102537.50;4992824;28;20551;-77
2022/01/19 06:40:28;;;;;;;25.10;9.50;;;;;;;0.16;67.55;102549.00;4992593;28;20233;-78
2022/01/19 06:42:54;;;;;;;20.20;9.87;;;;;;;0.12;67.98;102546.63;4992855;28;20197;-77
2022/01/19 06:45:21;;;;;;;21.90;11.70;;;;;;;0.09;67.81;102551.16;4991946;28;20225;-75
2022/01/19 06:47:46;;;;;;;24.97;11.63;;;;;;;0.09;67.69;102536.03;4992218;28;20670;-76
2022/01/19 06:50:13;;;;;;;21.07;10.53;;;;;;;0.31;66.74;102555.59;4992628;28;20173;-77
2022/01/19 06:52:39;;;;;;;19.33;10.73;;;;;;;0.25;66.73;102526.88;4992362;28;20185;-77
2022/01/19 06:55:06;;;;;;;26.17;12.93;;;;;;;0.63;65.86;102543.09;4992316;28;20173;-78
2022/01/19 06:57:32;;;;;;;23.13;10.97;;;;;;;0.59;64.78;102501.97;4992012;28;20184;-78
2022/01/19 06:59:59;;;;;;;38.03;16.97;;;;;;;0.86;64.45;102508.88;4992542;28;20182;-78
2022/01/19 07:02:24;;;;;;;23.40;12.97;;;;;;;1.05;63.58;102519.34;4991795;28;20184;-78
2022/01/19 07:04:50;;;;;;;22.07;10.97;;;;;;;0.91;63.46;102494.47;4992243;28;20303;-78
2022/01/19 07:07:19;;;;;;;20.33;11.00;;;;;;;1.21;64.04;102532.78;4992371;28;20209;-79
2022/01/19 07:09:45;;;;;;;24.07;11.27;;;;;;;1.43;62.62;102543.03;4992050;28;20183;-77
2022/01/19 07:12:11;;;;;;;21.13;10.83;;;;;;;1.52;62.30;102551.16;4992051;28;20264;-78
2022/01/19 07:14:37;;;;;;;21.37;11.43;;;;;;;1.64;62.25;102547.09;4992076;28;20181;-78
2022/01/19 07:17:03;;;;;;;22.53;11.00;;;;;;;1.73;61.92;102544.38;4992242;28;20249;-78
2022/01/19 07:19:29;;;;;;;20.43;9.13;;;;;;;1.76;61.07;102537.28;4991884;28;20208;-78
2022/01/19 07:21:55;;;;;;;18.67;9.43;;;;;;;1.80;61.83;102546.25;4991705;28;20201;-77
2022/01/19 07:24:20;;;;;;;14.40;8.33;;;;;;;1.76;61.47;102539.81;4974548;28;20212;-77
2022/01/19 07:26:46;;;;;;;20.73;9.43;;;;;;;1.77;61.33;102531.53;4991652;28;20193;-77
2022/01/19 07:29:14;;;;;;;22.80;9.50;;;;;;;1.94;61.11;102541.75;4991672;28;20177;-77
2022/01/19 07:31:40;;;;;;;15.50;8.27;;;;;;;1.96;60.28;102535.31;4991889;28;20438;-79
2022/01/19 07:34:06;;;;;;;16.10;7.87;;;;;;;1.75;60.12;102509.25;4992247;28;20637;-78
2022/01/19 07:36:32;;;;;;;19.10;7.70;;;;;;;1.81;60.44;102518.72;4992000;28;20192;-77
2022/01/19 07:38:57;;;;;;;13.50;6.93;;;;;;;1.99;60.41;102530.72;4991513;28;20181;-77
2022/01/19 07:41:23;;;;;;;20.17;9.47;;;;;;;2.15;60.27;102544.13;4992059;28;20260;-79
2022/01/19 07:43:48;;;;;;;19.67;7.33;;;;;;;2.21;59.67;102528.94;4991737;28;20553;-78
2022/01/19 07:46:16;;;;;;;14.83;7.40;;;;;;;2.20;59.69;102532.19;4991899;28;20216;-78
2022/01/19 07:48:41;;;;;;;16.17;8.37;;;;;;;2.35;59.91;102542.13;4992024;28;20182;-79
2022/01/19 07:51:07;;;;;;;22.17;7.83;;;;;;;2.35;59.70;102538.69;4974664;28;20188;-79
2022/01/19 07:53:33;;;;;;;17.37;7.90;;;;;;;2.33;59.54;102529.91;4991609;28;20633;-78
2022/01/19 07:55:58;;;;;;;11.90;7.60;;;;;;;2.36;59.44;102531.31;4991789;28;20170;-77
2022/01/19 07:58:24;;;;;;;13.93;7.63;;;;;;;2.42;59.31;102527.19;4992004;28;20177;-77
2022/01/19 08:00:49;;;;;;;12.53;6.63;;;;;;;2.51;58.82;102515.94;4993835;28;20177;-77
2022/01/19 08:03:15;;;;;;;13.10;6.80;;;;;;;2.43;59.01;102507.84;4975761;28;20205;-78
2022/01/19 08:05:41;;;;;;;14.77;7.37;;;;;;;2.56;58.84;102521.72;4995345;28;20261;-76
2022/01/19 08:08:07;;;;;;;18.13;8.33;;;;;;;2.68;59.21;102525.16;4994105;28;20173;-78
2022/01/19 08:10:32;;;;;;;22.10;7.87;;;;;;;2.90;59.13;102527.72;4991788;28;20625;-78
2022/01/19 08:13:02;;;;;;;17.03;7.90;;;;;;;3.03;57.64;102527.97;4993841;28;20229;-78
2022/01/19 08:15:27;;;;;;;12.87;6.87;;;;;;;3.10;58.12;102524.72;4996294;28;20684;-78
2022/01/19 08:17:53;;;;;;;13.20;7.07;;;;;;;3.06;57.73;102508.16;4996063;28;20661;-78
2022/01/19 08:20:19;;;;;;;16.83;7.67;;;;;;;3.19;57.14;102490.63;4995754;28;20657;-78
2022/01/19 08:22:45;;;;;;;17.20;8.40;;;;;;;3.30;56.96;102515.94;4995752;28;20256;-79
2022/01/19 08:25:10;;;;;;;16.27;7.90;;;;;;;3.59;57.52;102539.66;4996140;28;20296;-77
2022/01/19 08:27:36;;;;;;;18.57;7.47;;;;;;;3.65;57.10;102536.41;4996506;28;20674;-78
2022/01/19 08:30:08;;;;;;;13.63;7.80;;;;;;;3.73;55.51;102521.38;4995285;28;20776;-78
2022/01/19 08:32:35;;;;;;;16.90;8.77;;;;;;;3.78;55.06;102526.44;4995460;28;20309;-79
2022/01/19 08:35:02;;;;;;;19.23;8.37;;;;;;;3.97;55.32;102540.22;4994937;28;20697;-78
2022/01/19 08:37:27;;;;;;;19.90;7.67;;;;;;;4.06;55.56;102538.09;4994364;28;20230;-79
2022/01/19 08:39:53;;;;;;;21.30;9.57;;;;;;;4.06;54.87;102518.72;4994827;28;20260;-78
2022/01/19 08:42:19;;;;;;;19.10;8.83;;;;;;;4.22;54.14;102531.13;4995046;28;20184;-78
2022/01/19 08:44:44;;;;;;;18.87;8.63;;;;;;;4.27;54.24;102530.16;4996093;28;20248;-79
2022/01/19 08:47:10;;;;;;;33.53;13.10;;;;;;;4.33;55.05;102508.19;4977874;28;20181;-77
2022/01/19 08:49:36;;;;;;;20.70;9.77;;;;;;;4.54;54.26;102520.53;4995115;28;20219;-77
2022/01/19 08:52:03;;;;;;;15.87;8.40;;;;;;;4.59;52.77;102501.81;4995377;28;20184;-79
2022/01/19 08:54:29;;;;;;;15.23;7.93;;;;;;;4.72;52.04;102486.72;4994530;28;20654;-77
2022/01/19 08:56:55;;;;;;;15.37;7.63;;;;;;;4.99;51.95;102510.97;4994649;28;20244;-78
2022/01/19 08:59:21;;;;;;;25.00;8.43;;;;;;;5.11;51.71;102514.34;4994390;28;20176;-79
2022/01/19 09:01:46;;;;;;;19.17;9.57;;;;;;;5.12;51.19;102508.53;4994422;28;20184;-78
2022/01/19 09:04:12;;;;;;;21.40;7.87;;;;;;;5.19;50.40;102516.31;4994118;28;20201;-78
2022/01/19 09:06:37;;;;;;;15.93;9.10;;;;;;;5.18;51.22;102504.34;4994428;28;20178;-80
2022/01/19 09:09:03;;;;;;;16.87;8.40;;;;;;;5.43;50.51;102502.72;4994529;28;20228;-78
2022/01/19 09:11:29;;;;;;;14.07;6.73;;;;;;;5.55;50.09;102504.44;4994245;28;20173;-79
2022/01/19 09:13:54;;;;;;;16.80;9.97;;;;;;;5.63;48.95;102498.78;4994208;28;20319;-79
2022/01/19 09:16:22;;;;;;;17.13;8.05;;;;;;;5.78;49.50;102500.91;4994508;28;20208;-79
2022/01/19 09:18:48;;;;;;;17.20;8.17;;;;;;;5.80;49.49;102488.41;4994390;28;20185;-79
2022/01/19 09:21:13;;;;;;;17.27;7.35;;;;;;;5.92;47.95;102485.03;4994289;28;20182;-77
2022/01/19 09:23:39;;;;;;;15.20;7.18;;;;;;;6.11;48.21;102480.88;4993874;28;20180;-79
2022/01/19 09:26:04;;;;;;;21.40;9.68;;;;;;;6.18;48.05;102472.44;4993768;28;20173;-79
2022/01/19 09:28:30;;;;;;;16.10;7.70;;;;;;;6.24;47.67;102458.94;4993987;28;20181;-80
2022/01/19 09:31:01;;;;;;;13.07;6.45;;;;;;;6.35;47.24;102455.28;4993670;28;20189;-80
2022/01/19 09:33:30;;;;;;;14.15;7.18;;;;;;;6.34;47.43;102438.19;4993928;28;20246;-80
2022/01/19 09:38:34;;;;;;;14.68;7.60;;;;;;;6.55;47.06;102440.19;4976824;28;20213;-80
2022/01/19 09:41:00;;;;;;;20.07;8.17;;;;;;;6.55;46.84;102418.88;4993617;28;20177;-79
2022/01/19 09:43:26;;;;;;;18.88;6.38;;;;;;;6.57;46.00;102433.63;4993704;28;20232;-78
2022/01/19 09:45:53;;;;;;;14.77;6.32;;;;;;;6.52;46.06;102416.84;4993575;28;20208;-79
2022/01/19 09:48:20;;;;;;;11.82;5.90;;;;;;;6.67;46.34;102434.19;4993524;28;20205;-79
2022/01/19 09:50:45;;;;;;;11.57;6.25;;;;;;;6.89;46.56;102435.44;4993486;28;20184;-80
2022/01/19 09:53:11;;;;;;;14.93;7.13;;;;;;;6.95;46.53;102445.53;4993495;28;20173;-79
2022/01/19 09:55:41;;;;;;;19.30;7.57;;;;;;;7.14;45.88;102428.50;4993813;28;20178;-79
2022/01/19 09:58:08;;;;;;;17.00;7.80;;;;;;;7.31;46.18;102435.81;4993340;28;20213;-80
2022/01/19 10:00:35;;;;;;;17.42;8.02;;;;;;;7.35;45.34;102398.19;4993145;28;20185;-80
2022/01/19 10:03:18;;;;;;;18.00;7.97;;;;;;;7.72;43.80;102437.78;4993115;28;20181;-79
2022/01/19 10:06:07;;;;;;;12.50;6.32;;;;;;;7.68;43.82;102427.91;4993267;28;20772;-77
2022/01/19 10:08:42;;;;;;;12.68;6.20;;;;;;;7.54;43.87;102381.09;4975456;28;20197;-79
2022/01/19 10:11:26;;;;;;;14.02;6.28;;;;;;;7.95;43.71;102380.44;4993013;28;20248;-78
2022/01/19 10:16:59;;;;;;;10.20;6.93;;;;;;;8.86;41.39;102407.28;4993181;28;20369;-79
2022/01/19 10:19:31;;;;;;;14.98;7.30;;;;;;;8.70;41.43;102407.91;4993392;28;20181;-80
2022/01/19 10:22:02;;;;;;;12.20;6.90;;;;;;;8.74;41.81;102406.63;4993074;28;20228;-79
2022/01/19 10:24:41;;;;;;;17.25;8.73;;;;;;;8.76;41.21;102406.09;4992962;28;20200;-79
2022/01/19 10:27:33;;;;;;;23.30;8.80;;;;;;;8.85;42.49;102397.75;4975774;28;20215;-79
2022/01/19 10:30:04;;;;;;;17.55;8.45;;;;;;;9.02;41.45;102388.00;4975630;28;20272;-79
2022/01/19 10:32:41;;;;;;;13.15;7.32;;;;;;;8.98;41.10;102357.66;4993875;28;20191;-80
2022/01/19 10:35:27;;;;;;;15.05;8.13;;;;;;;9.16;41.53;102371.81;4993013;28;20173;-79
2022/01/19 10:38:19;;;;;;;15.00;8.10;;;;;;;9.27;41.06;102366.38;4993265;28;20319;-80
2022/01/19 10:41:01;;;;;;;16.58;8.63;;;;;;;9.38;41.21;102345.59;4993682;28;20247;-80
2022/01/19 10:43:42;;;;;;;15.02;8.18;;;;;;;9.67;40.88;102341.44;4995771;28;20712;-79
2022/01/19 10:46:16;;;;;;;16.27;8.43;;;;;;;10.03;41.14;102340.56;4993597;28;20170;-80
2022/01/19 10:48:43;;;;;;;15.60;7.75;;;;;;;10.44;39.27;102342.97;4994139;28;20188;-79
2022/01/19 10:51:16;;;;;;;11.75;6.25;;;;;;;10.38;39.11;102335.47;4994826;28;20285;-77
2022/01/19 10:53:45;;;;;;;11.68;6.07;;;;;;;10.28;39.16;102313.69;4997662;28;20176;-81
2022/01/19 10:56:28;;;;;;;17.92;6.53;;;;;;;10.41;39.05;102332.34;4994389;28;20180;-79
2022/01/19 10:58:54;;;;;;;16.75;7.57;;;;;;;10.63;38.14;102317.84;4996623;28;20252;-78
2022/01/19 11:01:34;;;;;;;19.67;6.68;;;;;;;10.77;36.33;102301.50;5004632;28;20201;-80
2022/01/19 11:04:21;;;;;;;12.43;6.60;;;;;;;10.64;36.65;102302.63;5003284;28;20232;-78
2022/01/19 11:06:55;;;;;;;12.40;6.30;;;;;;;10.74;36.02;102304.59;5006694;28;20189;-76
2022/01/19 11:09:24;;;;;;;12.98;6.57;;;;;;;10.83;35.03;102297.97;5010172;28;20195;-78
2022/01/19 11:11:53;;;;;;;12.32;5.93;;;;;;;10.66;33.84;102299.34;4990321;28;20190;-76
2022/01/19 11:14:20;;;;;;;12.50;6.03;;;;;;;10.63;35.08;102279.41;5005929;28;20202;-77
2022/01/19 11:16:45;;;;;;;12.98;6.00;;;;;;;10.69;33.57;102244.22;4991900;28;20170;-77
2022/01/19 11:19:12;;;;;;;18.88;6.47;;;;;;;10.93;33.08;102270.84;5002741;28;20196;-78
2022/01/19 11:21:55;;;;;;;12.68;5.97;;;;;;;10.84;32.69;102260.44;5003336;28;20182;-79
2022/01/19 11:24:34;;;;;;;9.90;5.60;;;;;;;11.09;32.84;102283.06;5007809;28;20295;-80
2022/01/19 11:27:00;;;;;;;16.08;5.20;;;;;;;11.10;32.56;102269.47;5003253;28;20208;-79
2022/01/19 11:29:26;;;;;;;10.77;6.13;;;;;;;11.26;32.33;102277.28;5004054;28;20573;-77
2022/01/19 11:31:55;;;;;;;8.68;5.20;;;;;;;11.22;32.89;102276.75;5008274;28;20181;-80
2022/01/19 11:34:52;;;;;;;12.90;4.90;;;;;;;11.30;33.69;102265.69;4987421;28;20185;-78
2022/01/19 11:37:39;;;;;;;12.95;6.03;;;;;;;11.54;33.52;102237.66;5005222;28;20173;-76
2022/01/19 11:40:07;;;;;;;8.40;5.25;;;;;;;11.98;33.26;102280.25;5009321;28;20180;-78
2022/01/19 11:42:33;;;;;;;17.20;6.32;;;;;;;12.33;33.00;102266.88;5005196;28;20696;-77
2022/01/19 11:44:59;;;;;;;14.52;6.15;;;;;;;12.42;31.94;102225.09;4993288;28;20204;-77
2022/01/19 11:47:29;;;;;;;10.52;6.38;;;;;;;12.52;31.86;102233.81;5007480;28;20230;-76
2022/01/19 11:50:04;;;;;;;14.95;7.00;;;;;;;12.57;32.33;102242.94;5010789;28;20165;-76
2022/01/19 11:52:38;;;;;;;14.55;7.38;;;;;;;12.43;31.73;102246.59;5010942;28;20183;-76
2022/01/19 11:55:18;;;;;;;13.52;6.30;;;;;;;12.35;32.21;102234.56;5005172;28;20184;-79
2022/01/19 11:57:47;;;;;;;19.38;6.03;;;;;;;12.33;32.36;102252.38;4998084;28;20637;-78
2022/01/19 12:00:32;;;;;;;13.80;5.88;;;;;;;12.08;32.03;102235.94;4997569;28;20653;-78
2022/01/19 12:02:58;;;;;;;8.23;4.63;;;;;;;11.77;31.82;102191.44;4998095;28;20208;-79
2022/01/19 12:05:35;;;;;;;13.55;7.32;;;;;;;11.90;32.02;102223.63;4998392;28;20201;-78
2022/01/19 12:08:17;;;;;;;14.23;5.25;;;;;;;11.71;32.28;102219.03;4981561;28;20649;-79
2022/01/19 12:10:47;;;;;;;11.52;5.57;;;;;;;11.42;32.28;102177.25;4997480;28;20201;-78
2022/01/19 12:13:34;;;;;;;8.32;5.15;;;;;;;11.51;32.54;102221.91;4997037;28;20232;-79
2022/01/19 12:16:10;;;;;;;9.48;5.57;;;;;;;11.48;32.63;102226.69;4996995;28;20176;-78
2022/01/19 12:18:56;;;;;;;10.68;5.43;;;;;;;11.41;32.82;102197.63;4995864;28;20169;-79
2022/01/19 12:21:31;;;;;;;16.98;5.40;;;;;;;11.63;32.44;102209.53;4997324;28;20566;-78
2022/01/19 12:24:13;;;;;;;11.93;5.32;;;;;;;11.69;32.25;102194.81;4996534;28;20208;-78
2022/01/19 12:26:55;;;;;;;11.00;4.95;;;;;;;11.84;31.60;102212.63;4997729;28;20177;-79
2022/01/19 12:29:36;;;;;;;11.43;5.78;;;;;;;11.95;31.49;102207.97;4995981;28;20180;-81
2022/01/19 12:32:18;;;;;;;11.80;5.50;;;;;;;12.15;31.25;102194.75;4995730;28;20181;-79
2022/01/19 12:34:52;;;;;;;12.15;6.00;;;;;;;12.21;31.15;102167.16;4995196;28;20165;-80
2022/01/19 12:37:26;;;;;;;12.38;6.05;;;;;;;12.56;31.18;102190.59;4977556;28;20165;-78
2022/01/19 12:39:55;;;;;;;14.18;6.35;;;;;;;12.69;31.59;102188.59;4995286;28;20177;-81
2022/01/19 12:42:38;;;;;;;12.55;6.07;;;;;;;12.58;31.69;102154.75;4994983;28;20281;-80
2022/01/19 12:45:19;;;;;;;17.73;6.90;;;;;;;12.91;31.48;102183.16;4995184;28;20212;-80
2022/01/19 12:47:48;;;;;;;12.48;6.30;;;;;;;12.89;31.18;102188.13;4995650;28;20282;-79
2022/01/19 12:50:13;;;;;;;10.13;5.78;;;;;;;12.71;29.49;102178.47;4978266;28;20645;-78
2022/01/19 12:52:48;;;;;;;8.30;5.15;;;;;;;12.74;30.16;102180.44;4996414;28;20178;-80
2022/01/19 12:55:24;;;;;;;16.58;6.32;;;;;;;12.52;29.56;102100.09;4995010;28;20236;-80
2022/01/19 12:57:52;;;;;;;11.00;5.90;;;;;;;12.87;29.40;102142.44;4995813;28;20641;-78
2022/01/19 13:00:20;;;;;;;10.32;5.50;;;;;;;12.87;29.56;102176.78;4976447;28;20181;-79